createdAt,value
2019-02-19T00:01:21.647Z,6.90
2019-02-19T00:03:49.749Z,6.90
2019-02-19T00:06:17.805Z,6.90
2019-02-19T00:08:45.790Z,6.90
2019-02-19T00:11:13.797Z,6.90
2019-02-19T00:13:41.833Z,6.80
2019-02-19T00:16:09.845Z,6.70
2019-02-19T00:18:37.880Z,6.70
2019-02-19T00:21:05.928Z,6.60
2019-02-19T00:23:33.937Z,6.60
2019-02-19T00:26:01.929Z,6.60
2019-02-19T00:28:29.910Z,6.50
2019-02-19T00:30:58.026Z,6.50
2019-02-19T00:33:25.951Z,6.50
2019-02-19T00:35:54.096Z,6.50
2019-02-19T00:38:22.080Z,6.50
2019-02-19T00:40:50.053Z,6.60
2019-02-19T00:43:19.635Z,6.80
2019-02-19T00:45:47.695Z,6.70
2019-02-19T00:48:15.689Z,6.80
2019-02-19T00:50:43.664Z,6.70
2019-02-19T00:53:11.663Z,6.70
2019-02-19T00:55:39.644Z,6.70
2019-02-19T00:58:07.633Z,6.70
2019-02-19T01:00:35.770Z,6.70
2019-02-19T01:03:03.823Z,6.70
2019-02-19T01:05:31.818Z,6.70
2019-02-19T01:07:59.991Z,6.70
2019-02-19T01:10:27.976Z,6.70
2019-02-19T01:12:55.998Z,6.60
2019-02-19T01:15:25.723Z,6.60
2019-02-19T01:17:53.760Z,6.50
2019-02-19T01:20:21.752Z,6.50
2019-02-19T01:22:49.720Z,6.50
2019-02-19T01:25:17.734Z,6.50
2019-02-19T01:27:45.763Z,6.50
2019-02-19T01:30:13.770Z,6.50
2019-02-19T01:32:41.752Z,6.60
2019-02-19T01:35:09.682Z,6.60
2019-02-19T01:37:37.680Z,6.70
2019-02-19T01:40:05.749Z,6.70
2019-02-19T01:42:33.634Z,6.70
2019-02-19T01:45:01.606Z,6.70
2019-02-19T01:47:29.479Z,6.70
2019-02-19T01:49:57.416Z,6.60
2019-02-19T01:52:25.358Z,6.60
2019-02-19T01:54:53.286Z,6.50
2019-02-19T01:57:21.229Z,6.40
2019-02-19T01:59:49.102Z,6.40
2019-02-19T02:02:17.030Z,6.40
2019-02-19T02:04:44.922Z,6.40
2019-02-19T02:07:12.890Z,6.50
2019-02-19T02:09:40.857Z,6.50
2019-02-19T02:12:08.752Z,6.50
2019-02-19T02:14:36.736Z,6.50
2019-02-19T02:17:04.651Z,6.50
2019-02-19T02:19:32.559Z,6.50
2019-02-19T02:22:00.520Z,6.40
2019-02-19T02:24:28.501Z,6.30
2019-02-19T02:26:56.395Z,6.20
2019-02-19T02:29:24.253Z,6.30
2019-02-19T02:31:52.171Z,6.20
2019-02-19T02:34:20.054Z,6.20
2019-02-19T02:36:47.986Z,6.30
2019-02-19T02:39:15.924Z,6.30
2019-02-19T02:41:43.848Z,6.30
2019-02-19T02:44:11.716Z,6.20
2019-02-19T02:46:39.611Z,6.20
2019-02-19T02:49:07.488Z,6.20
2019-02-19T02:51:35.387Z,6.20
2019-02-19T02:54:03.314Z,6.30
2019-02-19T02:56:31.226Z,6.30
2019-02-19T02:58:59.093Z,6.30
2019-02-19T03:01:26.960Z,6.20
2019-02-19T03:03:54.849Z,6.30
2019-02-19T03:06:41.925Z,6.30
2019-02-19T03:09:09.835Z,6.30
2019-02-19T03:11:37.729Z,6.30
2019-02-19T03:14:05.677Z,6.40
2019-02-19T03:16:33.590Z,6.30
2019-02-19T03:19:01.517Z,6.30
2019-02-19T03:21:29.418Z,6.40
2019-02-19T03:23:57.355Z,6.30
2019-02-19T03:26:25.352Z,6.30
2019-02-19T03:28:53.257Z,6.20
2019-02-19T03:31:21.244Z,6.20
2019-02-19T03:33:49.355Z,6.20
2019-02-19T03:36:17.300Z,6.10
2019-02-19T03:38:45.217Z,6.10
2019-02-19T03:41:13.109Z,6.20
2019-02-19T03:43:41.128Z,6.10
2019-02-19T03:46:12.015Z,6.10
2019-02-19T03:48:38.656Z,6.20
2019-02-19T03:51:06.602Z,6.20
2019-02-19T03:53:34.474Z,6.20
2019-02-19T03:56:02.396Z,6.20
2019-02-19T03:58:30.332Z,6.20
2019-02-19T04:00:58.335Z,6.30
2019-02-19T04:03:26.534Z,6.30
2019-02-19T04:05:54.403Z,6.30
2019-02-19T04:08:22.292Z,6.30
2019-02-19T04:10:50.171Z,6.30
2019-02-19T04:13:18.027Z,6.20
2019-02-19T04:15:45.947Z,6.30
2019-02-19T04:18:13.947Z,6.30
2019-02-19T04:20:41.925Z,6.20
2019-02-19T04:23:09.957Z,6.20
2019-02-19T04:25:37.834Z,6.20
2019-02-19T04:28:07.160Z,6.20
2019-02-19T04:30:35.199Z,6.20
2019-02-19T04:33:03.123Z,6.30
2019-02-19T04:35:31.028Z,6.30
2019-02-19T04:37:58.968Z,6.30
2019-02-19T04:40:26.861Z,6.30
2019-02-19T04:42:54.792Z,6.30
2019-02-19T04:45:22.789Z,6.30
2019-02-19T04:47:50.731Z,6.30
2019-02-19T04:50:19.765Z,6.20
2019-02-19T04:52:47.898Z,6.30
2019-02-19T04:55:15.835Z,6.30
2019-02-19T04:57:43.716Z,6.30
2019-02-19T05:00:12.354Z,6.20
2019-02-19T05:02:40.290Z,6.10
2019-02-19T05:05:08.245Z,6.20
2019-02-19T05:07:36.132Z,6.20
2019-02-19T05:10:04.191Z,6.20
2019-02-19T05:12:32.062Z,6.20
2019-02-19T05:15:00.026Z,6.10
2019-02-19T05:17:28.035Z,6.00
2019-02-19T05:19:55.948Z,6.10
2019-02-19T05:22:23.931Z,6.10
2019-02-19T05:24:51.903Z,6.20
2019-02-19T05:27:19.827Z,6.20
2019-02-19T05:29:47.782Z,6.10
2019-02-19T05:32:15.831Z,6.10
2019-02-19T05:34:43.935Z,6.20
2019-02-19T05:37:11.979Z,6.20
2019-02-19T05:39:40.177Z,6.20
2019-02-19T05:42:08.059Z,6.10
2019-02-19T05:44:35.950Z,6.10
2019-02-19T05:47:03.868Z,6.10
2019-02-19T05:49:31.753Z,6.00
2019-02-19T05:51:59.744Z,6.00
2019-02-19T05:54:27.634Z,6.10
2019-02-19T05:56:55.634Z,6.10
2019-02-19T05:59:23.639Z,6.00
2019-02-19T06:01:51.570Z,6.10
2019-02-19T06:04:19.487Z,6.10
2019-02-19T06:06:47.637Z,6.00
2019-02-19T06:09:15.620Z,6.00
2019-02-19T06:11:43.481Z,6.00
2019-02-19T06:14:11.494Z,6.10
2019-02-19T06:16:39.380Z,6.10
2019-02-19T06:19:07.356Z,6.20
2019-02-19T06:21:35.273Z,6.20
2019-02-19T06:24:03.240Z,6.20
2019-02-19T06:26:31.230Z,6.20
2019-02-19T06:28:59.162Z,6.30
2019-02-19T06:31:27.163Z,6.40
2019-02-19T06:33:55.115Z,6.40
2019-02-19T06:36:23.302Z,6.30
2019-02-19T06:38:51.224Z,6.30
2019-02-19T06:41:19.091Z,6.30
2019-02-19T06:43:47.125Z,6.30
2019-02-19T06:46:15.052Z,6.40
2019-02-19T06:48:43.021Z,6.50
2019-02-19T06:51:10.908Z,6.50
2019-02-19T06:53:38.795Z,6.50
2019-02-19T06:56:06.746Z,6.50
2019-02-19T06:58:34.708Z,6.50
2019-02-19T07:01:02.600Z,6.50
2019-02-19T07:03:48.478Z,6.60
2019-02-19T07:06:16.599Z,6.70
2019-02-19T07:08:44.478Z,6.60
2019-02-19T07:11:12.408Z,6.60
2019-02-19T07:13:40.355Z,6.70
2019-02-19T07:16:08.359Z,6.70
2019-02-19T07:18:36.328Z,6.80
2019-02-19T07:21:04.397Z,6.80
2019-02-19T07:23:32.366Z,6.80
2019-02-19T07:26:00.334Z,6.80
2019-02-19T07:28:28.454Z,6.80
2019-02-19T07:30:56.605Z,6.90
2019-02-19T07:33:24.537Z,7.00
2019-02-19T07:35:52.573Z,7.10
2019-02-19T07:38:21.464Z,7.10
2019-02-19T07:40:49.467Z,7.20
2019-02-19T07:43:17.338Z,7.20
2019-02-19T07:45:45.409Z,7.20
2019-02-19T07:48:13.395Z,7.30
2019-02-19T07:50:41.342Z,7.20
2019-02-19T07:53:09.313Z,7.30
2019-02-19T07:55:37.220Z,7.30
2019-02-19T07:58:05.299Z,7.40
2019-02-19T08:00:33.222Z,7.40
2019-02-19T08:03:01.268Z,7.50
2019-02-19T08:05:29.179Z,7.60
2019-02-19T08:07:57.101Z,7.60
2019-02-19T08:10:25.051Z,7.60
2019-02-19T08:12:52.925Z,7.70
2019-02-19T08:15:20.993Z,7.70
2019-02-19T08:17:49.104Z,7.80
2019-02-19T08:20:17.123Z,7.90
2019-02-19T08:22:45.063Z,8.00
2019-02-19T08:25:13.088Z,8.10
2019-02-19T08:27:41.220Z,8.20
2019-02-19T08:30:11.095Z,8.30
2019-02-19T08:32:39.259Z,8.30
2019-02-19T08:35:07.265Z,8.40
2019-02-19T08:37:35.243Z,8.50
2019-02-19T08:40:03.166Z,8.60
2019-02-19T08:42:31.095Z,8.80
2019-02-19T08:44:59.082Z,8.90
2019-02-19T08:47:26.978Z,8.90
2019-02-19T08:49:54.892Z,8.90
2019-02-19T08:52:22.807Z,8.90
2019-02-19T08:54:50.750Z,9.00
2019-02-19T08:57:18.647Z,8.90
2019-02-19T08:59:46.622Z,9.10
2019-02-19T09:02:14.605Z,9.10
2019-02-19T09:04:42.606Z,9.30
2019-02-19T09:07:10.526Z,9.40
2019-02-19T09:09:38.528Z,9.50
2019-02-19T09:12:06.522Z,9.50
2019-02-19T09:14:34.565Z,9.60
2019-02-19T09:17:02.520Z,9.60
2019-02-19T09:19:30.852Z,9.60
2019-02-19T09:21:58.909Z,9.40
2019-02-19T09:24:26.899Z,9.50
2019-02-19T09:26:54.796Z,9.50
2019-02-19T09:29:22.811Z,9.50
2019-02-19T09:31:50.743Z,9.60
2019-02-19T09:34:18.797Z,9.60
2019-02-19T09:36:46.826Z,9.60
2019-02-19T09:39:14.846Z,9.50
2019-02-19T09:41:42.857Z,9.50
2019-02-19T09:44:10.858Z,9.50
2019-02-19T09:46:38.811Z,9.50
2019-02-19T09:49:06.691Z,9.50
2019-02-19T09:51:34.752Z,9.60
2019-02-19T09:54:02.777Z,9.60
2019-02-19T09:56:30.736Z,9.60
2019-02-19T09:58:58.746Z,9.70
2019-02-19T10:01:28.140Z,9.70
2019-02-19T10:03:56.516Z,9.70
2019-02-19T10:06:24.487Z,9.80
2019-02-19T10:08:52.396Z,9.70
2019-02-19T10:11:20.407Z,9.60
2019-02-19T10:13:48.381Z,9.60
2019-02-19T10:16:16.419Z,9.60
2019-02-19T10:18:44.336Z,9.70
2019-02-19T10:21:12.734Z,9.70
2019-02-19T10:23:40.846Z,9.70
2019-02-19T10:26:08.962Z,9.60
2019-02-19T10:28:37.034Z,9.50
2019-02-19T10:31:05.092Z,9.50
2019-02-19T10:33:33.142Z,9.60
2019-02-19T10:36:01.149Z,9.70
2019-02-19T10:38:29.277Z,9.70
2019-02-19T10:40:57.213Z,9.70
2019-02-19T10:43:25.172Z,9.80
2019-02-19T10:45:53.058Z,9.80
2019-02-19T10:48:20.965Z,9.80
2019-02-19T10:50:48.973Z,9.90
2019-02-19T10:53:16.865Z,9.80
2019-02-19T10:55:44.757Z,9.80
2019-02-19T10:58:12.653Z,9.80
2019-02-19T11:00:40.711Z,9.80
2019-02-19T11:03:09.029Z,9.70
2019-02-19T11:05:36.970Z,9.60
2019-02-19T11:08:04.923Z,9.70
2019-02-19T11:10:32.887Z,9.80
2019-02-19T11:13:00.920Z,9.80
2019-02-19T11:15:28.845Z,9.90
2019-02-19T11:17:56.712Z,9.90
2019-02-19T11:20:25.143Z,9.80
2019-02-19T11:22:53.015Z,9.90
2019-02-19T11:25:20.904Z,9.90
2019-02-19T11:27:48.931Z,9.70
2019-02-19T11:30:16.984Z,9.80
2019-02-19T11:32:44.980Z,9.90
2019-02-19T11:35:12.999Z,10.00
2019-02-19T11:37:41.057Z,10.10
2019-02-19T11:40:09.710Z,10.20
2019-02-19T11:42:37.691Z,10.30
2019-02-19T11:45:06.185Z,10.30
2019-02-19T11:47:34.104Z,10.30
2019-02-19T11:50:01.987Z,10.30
2019-02-19T11:52:29.914Z,10.40
2019-02-19T11:54:57.823Z,10.30
2019-02-19T11:57:25.826Z,10.10
2019-02-19T11:59:53.814Z,10.20
2019-02-19T12:02:21.787Z,10.00
2019-02-19T12:04:49.788Z,10.00
2019-02-19T12:07:17.773Z,10.00
2019-02-19T12:09:46.207Z,9.90
2019-02-19T12:12:14.088Z,9.90
2019-02-19T12:14:42.079Z,9.90
2019-02-19T12:17:10.082Z,10.00
2019-02-19T12:19:38.047Z,10.20
2019-02-19T12:22:06.094Z,10.40
2019-02-19T12:24:34.074Z,10.60
2019-02-19T12:27:01.980Z,10.70
2019-02-19T12:29:30.025Z,10.70
2019-02-19T12:31:57.981Z,10.80
2019-02-19T12:34:25.967Z,10.70
2019-02-19T12:36:53.919Z,10.60
2019-02-19T12:39:21.834Z,10.80
2019-02-19T12:41:49.736Z,10.80
2019-02-19T12:44:17.604Z,10.60
2019-02-19T12:46:45.616Z,10.70
2019-02-19T12:49:13.573Z,10.70
2019-02-19T12:51:41.533Z,10.80
2019-02-19T12:54:09.530Z,10.80
2019-02-19T12:56:37.511Z,10.80
2019-02-19T12:59:05.403Z,10.80
2019-02-19T13:01:33.387Z,10.70
2019-02-19T13:04:01.270Z,10.60
2019-02-19T13:06:29.287Z,10.60
2019-02-19T13:08:57.340Z,10.60
2019-02-19T13:11:25.235Z,10.60
2019-02-19T13:13:53.130Z,10.50
2019-02-19T13:16:21.069Z,10.50
2019-02-19T13:18:49.046Z,10.60
2019-02-19T13:21:17.012Z,10.50
2019-02-19T13:23:44.952Z,10.60
2019-02-19T13:26:12.842Z,10.60
2019-02-19T13:28:40.785Z,10.60
2019-02-19T13:31:08.705Z,10.60
2019-02-19T13:33:36.582Z,10.30
2019-02-19T13:36:04.496Z,10.30
2019-02-19T13:38:32.444Z,10.20
2019-02-19T13:41:00.342Z,10.30
2019-02-19T13:43:28.217Z,10.30
2019-02-19T13:45:56.071Z,10.30
2019-02-19T13:48:24.039Z,10.20
2019-02-19T13:50:51.979Z,10.20
2019-02-19T13:53:31.052Z,10.20
2019-02-19T13:56:00.505Z,10.20
2019-02-19T13:58:28.492Z,10.30
2019-02-19T14:00:56.415Z,10.40
2019-02-19T14:03:24.371Z,10.60
2019-02-19T14:05:52.447Z,10.90
2019-02-19T14:08:20.817Z,11.30
2019-02-19T14:10:48.817Z,11.40
2019-02-19T14:13:16.829Z,11.10
2019-02-19T14:16:09.439Z,11.10
2019-02-19T14:18:49.059Z,10.90
2019-02-19T14:21:30.552Z,10.80
2019-02-19T14:24:08.166Z,10.70
2019-02-19T14:27:04.235Z,10.60
2019-02-19T14:29:51.315Z,10.60
2019-02-19T14:32:38.622Z,10.60
2019-02-19T14:35:24.855Z,10.60
2019-02-19T14:38:18.082Z,10.80
2019-02-19T14:41:04.149Z,10.90
2019-02-19T14:43:42.840Z,10.90
2019-02-19T14:46:40.819Z,10.90
2019-02-19T14:49:34.194Z,11.00
2019-02-19T14:52:14.097Z,10.70
2019-02-19T14:54:55.107Z,10.80
2019-02-19T14:57:38.729Z,10.80
2019-02-19T15:00:30.445Z,10.80
2019-02-19T15:03:23.714Z,10.80
2019-02-19T15:06:01.601Z,10.60
2019-02-19T15:08:39.121Z,10.60
2019-02-19T15:11:27.318Z,10.60
2019-02-19T15:14:20.903Z,10.50
2019-02-19T15:17:12.435Z,10.50
2019-02-19T15:19:55.077Z,10.60
2019-02-19T15:22:54.194Z,10.60
2019-02-19T15:25:59.297Z,10.50
2019-02-19T15:28:45.053Z,10.40
2019-02-19T15:31:44.154Z,10.40
2019-02-19T15:34:29.830Z,10.50
2019-02-19T15:37:20.871Z,10.40
2019-02-19T15:40:02.816Z,10.20
2019-02-19T15:42:50.027Z,10.20
2019-02-19T15:45:35.560Z,10.20
2019-02-19T15:48:24.953Z,10.20
2019-02-19T15:51:18.181Z,10.10
2019-02-19T15:53:55.702Z,10.20
2019-02-19T15:56:52.038Z,10.10
2019-02-19T15:59:39.385Z,10.10
2019-02-19T16:02:26.515Z,10.10
2019-02-19T16:05:31.716Z,10.20
2019-02-19T16:08:11.249Z,10.20
2019-02-19T16:10:52.087Z,10.10
2019-02-19T16:13:28.416Z,10.00
2019-02-19T16:19:38.847Z,10.00
2019-02-19T16:22:13.317Z,10.00
2019-02-19T16:24:59.517Z,9.90
2019-02-19T16:27:47.306Z,10.00
2019-02-19T16:30:37.688Z,9.90
2019-02-19T16:33:20.035Z,9.90
2019-02-19T16:36:00.434Z,9.90
2019-02-19T16:38:48.328Z,10.00
2019-02-19T16:41:34.601Z,9.90
2019-02-19T16:44:21.945Z,10.00
2019-02-19T16:46:56.095Z,9.90
2019-02-19T16:49:46.339Z,9.90
2019-02-19T16:52:24.583Z,9.90
2019-02-19T16:55:07.465Z,9.90
2019-02-19T16:57:44.233Z,9.90
2019-02-19T17:00:21.111Z,9.90
2019-02-19T17:02:54.259Z,9.90
2019-02-19T17:05:43.281Z,9.90
2019-02-19T17:08:54.062Z,9.90
2019-02-19T17:11:59.656Z,9.90
2019-02-19T17:14:45.699Z,9.90
2019-02-19T17:17:28.776Z,9.80
2019-02-19T17:20:28.255Z,9.90
2019-02-19T17:23:14.043Z,9.70
2019-02-19T17:25:50.793Z,9.70
2019-02-19T17:28:43.535Z,9.80
2019-02-19T17:31:36.028Z,9.80
2019-02-19T17:34:28.090Z,9.80
2019-02-19T17:37:15.618Z,9.70
2019-02-19T17:40:07.014Z,9.70
2019-02-19T17:43:05.395Z,9.70
2019-02-19T17:46:02.128Z,9.60
2019-02-19T17:48:39.245Z,9.70
2019-02-19T17:51:25.565Z,9.70
2019-02-19T17:54:20.424Z,9.60
2019-02-19T17:57:14.225Z,9.60
2019-02-19T18:00:07.939Z,9.60
2019-02-19T18:02:47.185Z,9.70
2019-02-19T18:05:29.833Z,9.70
2019-02-19T18:08:26.187Z,9.60
2019-02-19T18:11:13.342Z,9.60
2019-02-19T18:13:48.937Z,9.60
2019-02-19T18:16:34.991Z,9.60
2019-02-19T18:19:02.886Z,9.60
2019-02-19T18:21:30.811Z,9.60
2019-02-19T18:23:59.123Z,9.50
2019-02-19T18:26:27.027Z,9.50
2019-02-19T18:28:55.038Z,9.50
2019-02-19T18:31:22.987Z,9.60
2019-02-19T18:33:50.913Z,9.50
2019-02-19T18:36:18.887Z,9.60
2019-02-19T18:38:46.939Z,9.50
2019-02-19T18:41:14.944Z,9.60
2019-02-19T18:43:42.887Z,9.60
2019-02-19T18:46:10.869Z,9.50
2019-02-19T18:48:38.757Z,9.50
2019-02-19T18:51:06.647Z,9.60
2019-02-19T18:53:34.603Z,9.50
2019-02-19T18:56:03.287Z,9.50
2019-02-19T18:58:31.892Z,9.50
2019-02-19T19:01:00.040Z,9.60
2019-02-19T19:03:28.042Z,9.60
2019-02-19T19:05:56.050Z,9.50
2019-02-19T19:08:24.487Z,9.50
2019-02-19T19:10:53.209Z,9.50
2019-02-19T19:13:21.178Z,9.50
2019-02-19T19:15:49.216Z,9.50
2019-02-19T19:18:19.345Z,9.50
2019-02-19T19:20:47.074Z,9.60
2019-02-19T19:23:15.044Z,9.50
2019-02-19T19:25:43.035Z,9.40
2019-02-19T19:28:11.124Z,9.40
2019-02-19T19:30:39.238Z,9.40
2019-02-19T19:33:07.300Z,9.30
2019-02-19T19:35:35.529Z,9.00
2019-02-19T19:38:03.704Z,8.80
2019-02-19T19:40:31.647Z,8.60
2019-02-19T19:42:59.651Z,8.30
2019-02-19T19:45:27.749Z,8.20
2019-02-19T19:47:55.789Z,8.00
2019-02-19T19:50:23.745Z,7.60
2019-02-19T19:52:51.838Z,7.40
2019-02-19T19:55:19.840Z,7.20
2019-02-19T19:57:47.811Z,7.10
2019-02-19T20:00:16.443Z,7.00
2019-02-19T20:02:44.642Z,6.90
2019-02-19T20:05:12.819Z,6.90
2019-02-19T20:07:40.798Z,7.00
2019-02-19T20:10:08.860Z,7.00
2019-02-19T20:12:36.953Z,7.00
2019-02-19T20:15:05.006Z,7.00
2019-02-19T20:17:33.047Z,7.10
2019-02-19T20:20:01.039Z,7.10
2019-02-19T20:22:28.907Z,7.00
2019-02-19T20:24:56.901Z,7.10
2019-02-19T20:27:24.890Z,7.20
2019-02-19T20:29:54.439Z,7.30
2019-02-19T20:32:22.454Z,7.30
2019-02-19T20:34:50.372Z,7.30
2019-02-19T20:37:18.426Z,7.30
2019-02-19T20:39:46.396Z,7.30
2019-02-19T20:42:14.360Z,7.30
2019-02-19T20:44:42.260Z,7.30
2019-02-19T20:47:10.266Z,7.30
2019-02-19T20:49:38.237Z,7.30
2019-02-19T20:52:06.251Z,7.20
2019-02-19T20:54:34.243Z,7.10
2019-02-19T20:57:02.240Z,7.10
2019-02-19T20:59:30.384Z,7.10
2019-02-19T21:01:58.295Z,7.10
2019-02-19T21:04:26.253Z,7.10
2019-02-19T21:06:54.161Z,7.20
2019-02-19T21:09:22.141Z,7.20
2019-02-19T21:11:50.136Z,7.20
2019-02-19T21:14:18.332Z,7.20
2019-02-19T21:16:46.287Z,7.30
2019-02-19T21:19:14.360Z,7.40
2019-02-19T21:21:44.938Z,7.40
2019-02-19T21:24:11.983Z,7.40
2019-02-19T21:26:39.912Z,7.40
2019-02-19T21:29:07.906Z,7.40
2019-02-19T21:31:36.816Z,7.40
2019-02-19T21:34:05.053Z,7.40
2019-02-19T21:36:32.992Z,7.40
2019-02-19T21:39:00.917Z,7.30
2019-02-19T21:41:28.908Z,7.30
2019-02-19T21:43:56.931Z,7.30
2019-02-19T21:46:24.935Z,7.30
2019-02-19T21:48:52.837Z,7.20
2019-02-19T21:51:20.805Z,7.20
2019-02-19T21:53:48.706Z,7.20
2019-02-19T21:56:16.586Z,7.10
2019-02-19T21:58:44.551Z,7.00
2019-02-19T22:01:12.487Z,7.10
2019-02-19T22:03:40.406Z,7.10
2019-02-19T22:06:08.314Z,7.00
2019-02-19T22:08:36.265Z,7.00
2019-02-19T22:11:04.307Z,7.10
2019-02-19T22:13:32.197Z,7.10
2019-02-19T22:16:00.124Z,7.00
2019-02-19T22:18:27.993Z,7.10
2019-02-19T22:21:03.751Z,7.10
2019-02-19T22:23:31.669Z,7.10
2019-02-19T22:25:59.667Z,7.10
2019-02-19T22:28:27.637Z,7.20
2019-02-19T22:30:55.592Z,7.30
2019-02-19T22:33:23.587Z,7.30
2019-02-19T22:35:51.533Z,7.20
2019-02-19T22:38:19.724Z,7.20
2019-02-19T22:40:54.965Z,7.20
2019-02-19T22:43:17.249Z,7.20
2019-02-19T22:45:45.142Z,7.10
2019-02-19T22:48:13.067Z,7.10
2019-02-19T22:50:40.986Z,7.20
2019-02-19T22:53:28.115Z,7.10
2019-02-19T22:56:00.462Z,7.10
2019-02-19T22:58:28.362Z,7.00
2019-02-19T23:01:03.256Z,7.00
2019-02-19T23:03:31.121Z,7.00
2019-02-19T23:05:59.050Z,7.00
2019-02-19T23:08:27.046Z,7.00
2019-02-19T23:10:54.943Z,7.00
2019-02-19T23:13:22.944Z,7.00
2019-02-19T23:15:50.824Z,7.00
2019-02-19T23:18:18.791Z,7.00
2019-02-19T23:20:46.760Z,7.10
2019-02-19T23:23:14.658Z,7.00
2019-02-19T23:25:42.553Z,7.00
2019-02-19T23:28:10.458Z,6.90
2019-02-19T23:30:38.373Z,6.90
2019-02-19T23:33:06.297Z,7.00
2019-02-19T23:35:41.346Z,6.90
2019-02-19T23:38:09.238Z,6.90
2019-02-19T23:40:37.211Z,6.80
2019-02-19T23:43:05.130Z,6.80
2019-02-19T23:45:33.004Z,6.80
2019-02-19T23:48:00.875Z,6.80
2019-02-19T23:50:28.933Z,6.80
2019-02-19T23:52:56.883Z,6.80
2019-02-19T23:55:24.938Z,6.90
2019-02-19T23:57:53.052Z,6.90
